sensor_id;sensor_type;location;lat;lon;timestamp;temperature;humidity
25550;DHT22;13444;50.562;7.262;2022-12-07T00:01:05;4.30;99.90
25550;DHT22;13444;50.562;7.262;2022-12-07T00:03:31;4.30;99.90
25550;DHT22;13444;50.562;7.262;2022-12-07T00:06:00;4.30;99.90
25550;DHT22;13444;50.562;7.262;2022-12-07T00:08:26;4.30;99.90
25550;DHT22;13444;50.562;7.262;2022-12-07T00:10:51;4.30;99.90
25550;DHT22;13444;50.562;7.262;2022-12-07T00:13:17;4.30;99.90
25550;DHT22;13444;50.562;7.262;2022-12-07T00:15:43;4.30;99.90
25550;DHT22;13444;50.562;7.262;2022-12-07T00:18:08;4.30;99.90
25550;DHT22;13444;50.562;7.262;2022-12-07T00:20:34;4.30;99.90
25550;DHT22;13444;50.562;7.262;2022-12-07T00:23:00;4.30;99.90
25550;DHT22;13444;50.562;7.262;2022-12-07T00:25:25;4.30;99.90
25550;DHT22;13444;50.562;7.262;2022-12-07T00:27:53;4.30;99.90
25550;DHT22;13444;50.562;7.262;2022-12-07T00:30:21;4.40;99.90
25550;DHT22;13444;50.562;7.262;2022-12-07T00:32:47;4.30;99.90
25550;DHT22;13444;50.562;7.262;2022-12-07T00:35:13;4.30;99.90
25550;DHT22;13444;50.562;7.262;2022-12-07T00:37:39;4.40;99.90
25550;DHT22;13444;50.562;7.262;2022-12-07T00:40:05;4.40;99.90
25550;DHT22;13444;50.562;7.262;2022-12-07T00:42:31;4.40;99.90
25550;DHT22;13444;50.562;7.262;2022-12-07T00:44:56;4.40;99.90
25550;DHT22;13444;50.562;7.262;2022-12-07T00:47:21;4.40;99.90
25550;DHT22;13444;50.562;7.262;2022-12-07T00:49:47;4.40;99.90
25550;DHT22;13444;50.562;7.262;2022-12-07T00:52:13;4.40;99.90
25550;DHT22;13444;50.562;7.262;2022-12-07T00:54:39;4.40;99.90
25550;DHT22;13444;50.562;7.262;2022-12-07T00:57:05;4.40;99.90
25550;DHT22;13444;50.562;7.262;2022-12-07T00:59:30;4.50;99.90
25550;DHT22;13444;50.562;7.262;2022-12-07T01:01:56;4.40;99.90
25550;DHT22;13444;50.562;7.262;2022-12-07T01:04:21;4.40;99.90
25550;DHT22;13444;50.562;7.262;2022-12-07T01:06:47;4.50;99.90
25550;DHT22;13444;50.562;7.262;2022-12-07T01:09:12;4.40;99.90
25550;DHT22;13444;50.562;7.262;2022-12-07T01:11:38;4.40;99.90
25550;DHT22;13444;50.562;7.262;2022-12-07T01:14:03;4.40;99.90
25550;DHT22;13444;50.562;7.262;2022-12-07T01:16:31;4.40;99.90
25550;DHT22;13444;50.562;7.262;2022-12-07T01:18:58;4.40;99.90
25550;DHT22;13444;50.562;7.262;2022-12-07T01:21:29;4.40;99.90
25550;DHT22;13444;50.562;7.262;2022-12-07T01:23:57;4.40;99.90
25550;DHT22;13444;50.562;7.262;2022-12-07T01:26:24;4.50;99.90
25550;DHT22;13444;50.562;7.262;2022-12-07T01:28:50;4.40;99.90
25550;DHT22;13444;50.562;7.262;2022-12-07T01:31:19;4.50;99.90
25550;DHT22;13444;50.562;7.262;2022-12-07T01:33:48;4.50;99.90
25550;DHT22;13444;50.562;7.262;2022-12-07T01:36:19;4.50;99.90
25550;DHT22;13444;50.562;7.262;2022-12-07T01:38:46;4.50;99.90
25550;DHT22;13444;50.562;7.262;2022-12-07T01:41:12;4.50;99.90
25550;DHT22;13444;50.562;7.262;2022-12-07T01:46:32;4.50;99.90
25550;DHT22;13444;50.562;7.262;2022-12-07T01:48:58;4.50;99.90
25550;DHT22;13444;50.562;7.262;2022-12-07T01:51:25;4.50;99.90
25550;DHT22;13444;50.562;7.262;2022-12-07T01:53:51;4.50;99.90
25550;DHT22;13444;50.562;7.262;2022-12-07T01:56:21;4.50;99.90
25550;DHT22;13444;50.562;7.262;2022-12-07T01:58:48;4.50;99.90
25550;DHT22;13444;50.562;7.262;2022-12-07T02:01:14;4.50;99.90
25550;DHT22;13444;50.562;7.262;2022-12-07T02:03:42;4.50;99.90
25550;DHT22;13444;50.562;7.262;2022-12-07T02:06:10;4.50;99.90
25550;DHT22;13444;50.562;7.262;2022-12-07T02:08:37;4.50;99.90
25550;DHT22;13444;50.562;7.262;2022-12-07T02:11:04;4.50;99.90
25550;DHT22;13444;50.562;7.262;2022-12-07T02:13:33;4.50;99.90
25550;DHT22;13444;50.562;7.262;2022-12-07T02:18:55;4.50;99.90
25550;DHT22;13444;50.562;7.262;2022-12-07T02:21:43;4.50;99.90
25550;DHT22;13444;50.562;7.262;2022-12-07T02:27:23;4.60;99.90
25550;DHT22;13444;50.562;7.262;2022-12-07T02:30:12;4.60;99.90
25550;DHT22;13444;50.562;7.262;2022-12-07T02:32:59;4.50;99.90
25550;DHT22;13444;50.562;7.262;2022-12-07T02:38:28;4.60;99.90
25550;DHT22;13444;50.562;7.262;2022-12-07T02:41:20;4.60;99.90
25550;DHT22;13444;50.562;7.262;2022-12-07T02:44:00;4.50;99.90
25550;DHT22;13444;50.562;7.262;2022-12-07T02:46:33;4.50;99.90
25550;DHT22;13444;50.562;7.262;2022-12-07T02:49:00;4.60;99.90
25550;DHT22;13444;50.562;7.262;2022-12-07T02:51:30;4.60;99.90
25550;DHT22;13444;50.562;7.262;2022-12-07T02:53:55;4.60;99.90
25550;DHT22;13444;50.562;7.262;2022-12-07T03:07:25;4.60;99.90
25550;DHT22;13444;50.562;7.262;2022-12-07T03:10:00;4.60;99.90
25550;DHT22;13444;50.562;7.262;2022-12-07T03:13:18;4.60;99.90
25550;DHT22;13444;50.562;7.262;2022-12-07T03:16:02;4.60;99.90
25550;DHT22;13444;50.562;7.262;2022-12-07T03:18:32;4.60;99.90
25550;DHT22;13444;50.562;7.262;2022-12-07T03:21:03;4.60;99.90
25550;DHT22;13444;50.562;7.262;2022-12-07T03:23:33;4.60;99.90
25550;DHT22;13444;50.562;7.262;2022-12-07T03:26:01;4.60;99.90
25550;DHT22;13444;50.562;7.262;2022-12-07T03:28:33;4.60;99.90
25550;DHT22;13444;50.562;7.262;2022-12-07T03:31:19;4.60;99.90
25550;DHT22;13444;50.562;7.262;2022-12-07T03:34:01;4.70;99.90
25550;DHT22;13444;50.562;7.262;2022-12-07T03:36:37;4.70;99.90
25550;DHT22;13444;50.562;7.262;2022-12-07T03:39:27;4.70;99.90
25550;DHT22;13444;50.562;7.262;2022-12-07T03:41:56;4.70;99.90
25550;DHT22;13444;50.562;7.262;2022-12-07T03:44:22;4.70;99.90
25550;DHT22;13444;50.562;7.262;2022-12-07T03:47:12;4.70;99.90
25550;DHT22;13444;50.562;7.262;2022-12-07T03:50:08;4.70;99.90
25550;DHT22;13444;50.562;7.262;2022-12-07T03:52:41;4.80;99.90
25550;DHT22;13444;50.562;7.262;2022-12-07T03:55:34;4.80;99.90
25550;DHT22;13444;50.562;7.262;2022-12-07T03:58:09;4.80;99.90
25550;DHT22;13444;50.562;7.262;2022-12-07T04:00:35;4.80;99.90
25550;DHT22;13444;50.562;7.262;2022-12-07T04:03:01;4.80;99.90
25550;DHT22;13444;50.562;7.262;2022-12-07T04:05:27;4.80;99.90
25550;DHT22;13444;50.562;7.262;2022-12-07T04:07:52;4.90;99.90
25550;DHT22;13444;50.562;7.262;2022-12-07T04:10:18;4.90;99.90
25550;DHT22;13444;50.562;7.262;2022-12-07T04:12:44;4.90;99.90
25550;DHT22;13444;50.562;7.262;2022-12-07T04:15:09;4.90;99.90
25550;DHT22;13444;50.562;7.262;2022-12-07T04:17:35;4.90;99.90
25550;DHT22;13444;50.562;7.262;2022-12-07T04:20:01;4.90;99.90
25550;DHT22;13444;50.562;7.262;2022-12-07T04:22:27;4.90;99.90
25550;DHT22;13444;50.562;7.262;2022-12-07T04:24:52;4.90;99.90
25550;DHT22;13444;50.562;7.262;2022-12-07T04:27:18;4.90;99.90
25550;DHT22;13444;50.562;7.262;2022-12-07T04:29:43;4.90;99.90
25550;DHT22;13444;50.562;7.262;2022-12-07T04:32:09;5.00;99.90
25550;DHT22;13444;50.562;7.262;2022-12-07T04:34:34;5.00;99.90
25550;DHT22;13444;50.562;7.262;2022-12-07T04:37:00;5.00;99.90
25550;DHT22;13444;50.562;7.262;2022-12-07T04:39:28;5.00;99.90
25550;DHT22;13444;50.562;7.262;2022-12-07T04:41:54;5.10;99.90
25550;DHT22;13444;50.562;7.262;2022-12-07T04:44:21;5.10;99.90
25550;DHT22;13444;50.562;7.262;2022-12-07T04:46:47;5.10;99.90
25550;DHT22;13444;50.562;7.262;2022-12-07T04:49:13;5.10;99.90
25550;DHT22;13444;50.562;7.262;2022-12-07T04:51:39;5.20;99.90
25550;DHT22;13444;50.562;7.262;2022-12-07T04:54:05;5.20;99.90
25550;DHT22;13444;50.562;7.262;2022-12-07T04:56:31;5.30;99.90
25550;DHT22;13444;50.562;7.262;2022-12-07T04:58:57;5.30;99.90
25550;DHT22;13444;50.562;7.262;2022-12-07T05:01:23;5.30;99.90
25550;DHT22;13444;50.562;7.262;2022-12-07T05:03:48;5.20;99.90
25550;DHT22;13444;50.562;7.262;2022-12-07T05:06:14;5.30;99.90
25550;DHT22;13444;50.562;7.262;2022-12-07T05:08:40;5.30;99.90
25550;DHT22;13444;50.562;7.262;2022-12-07T05:11:07;5.30;99.90
25550;DHT22;13444;50.562;7.262;2022-12-07T05:13:33;5.30;99.90
25550;DHT22;13444;50.562;7.262;2022-12-07T05:15:59;5.30;99.90
25550;DHT22;13444;50.562;7.262;2022-12-07T05:18:25;5.30;99.90
25550;DHT22;13444;50.562;7.262;2022-12-07T05:20:50;5.30;99.90
25550;DHT22;13444;50.562;7.262;2022-12-07T05:23:17;5.30;99.90
25550;DHT22;13444;50.562;7.262;2022-12-07T05:25:42;5.30;99.90
25550;DHT22;13444;50.562;7.262;2022-12-07T05:28:08;5.30;99.90
25550;DHT22;13444;50.562;7.262;2022-12-07T05:30:34;5.30;99.90
25550;DHT22;13444;50.562;7.262;2022-12-07T05:32:59;5.30;99.90
25550;DHT22;13444;50.562;7.262;2022-12-07T05:35:25;5.30;99.90
25550;DHT22;13444;50.562;7.262;2022-12-07T05:37:50;5.30;99.90
25550;DHT22;13444;50.562;7.262;2022-12-07T05:40:16;5.30;99.90
25550;DHT22;13444;50.562;7.262;2022-12-07T05:42:42;5.30;99.90
25550;DHT22;13444;50.562;7.262;2022-12-07T05:45:09;5.30;99.90
25550;DHT22;13444;50.562;7.262;2022-12-07T05:47:35;5.30;99.90
25550;DHT22;13444;50.562;7.262;2022-12-07T05:50:01;5.30;99.90
25550;DHT22;13444;50.562;7.262;2022-12-07T05:52:26;5.30;99.90
25550;DHT22;13444;50.562;7.262;2022-12-07T05:54:52;5.30;99.90
25550;DHT22;13444;50.562;7.262;2022-12-07T05:57:18;5.20;99.90
25550;DHT22;13444;50.562;7.262;2022-12-07T05:59:44;5.30;99.90
25550;DHT22;13444;50.562;7.262;2022-12-07T06:02:12;5.30;99.90
25550;DHT22;13444;50.562;7.262;2022-12-07T06:04:41;5.30;99.90
25550;DHT22;13444;50.562;7.262;2022-12-07T06:07:07;5.30;99.90
25550;DHT22;13444;50.562;7.262;2022-12-07T06:09:33;5.30;99.90
25550;DHT22;13444;50.562;7.262;2022-12-07T06:11:59;5.30;99.90
25550;DHT22;13444;50.562;7.262;2022-12-07T06:14:44;5.30;99.90
25550;DHT22;13444;50.562;7.262;2022-12-07T06:17:11;5.30;99.90
25550;DHT22;13444;50.562;7.262;2022-12-07T06:19:38;5.30;99.90
25550;DHT22;13444;50.562;7.262;2022-12-07T06:22:04;5.30;99.90
25550;DHT22;13444;50.562;7.262;2022-12-07T06:24:31;5.30;99.90
25550;DHT22;13444;50.562;7.262;2022-12-07T06:26:56;5.30;99.90
25550;DHT22;13444;50.562;7.262;2022-12-07T06:29:22;5.30;99.90
25550;DHT22;13444;50.562;7.262;2022-12-07T06:31:48;5.30;99.90
25550;DHT22;13444;50.562;7.262;2022-12-07T06:34:16;5.30;99.90
25550;DHT22;13444;50.562;7.262;2022-12-07T06:36:42;5.30;99.90
25550;DHT22;13444;50.562;7.262;2022-12-07T06:39:08;5.30;99.90
25550;DHT22;13444;50.562;7.262;2022-12-07T06:41:35;5.30;99.90
25550;DHT22;13444;50.562;7.262;2022-12-07T06:44:01;5.30;99.90
25550;DHT22;13444;50.562;7.262;2022-12-07T06:46:27;5.30;99.90
25550;DHT22;13444;50.562;7.262;2022-12-07T06:48:52;5.30;99.90
25550;DHT22;13444;50.562;7.262;2022-12-07T06:51:18;5.30;99.90
25550;DHT22;13444;50.562;7.262;2022-12-07T06:53:44;5.30;99.90
25550;DHT22;13444;50.562;7.262;2022-12-07T06:56:09;5.30;99.90
25550;DHT22;13444;50.562;7.262;2022-12-07T06:58:35;5.30;99.90
25550;DHT22;13444;50.562;7.262;2022-12-07T07:01:00;5.30;99.90
25550;DHT22;13444;50.562;7.262;2022-12-07T07:03:26;5.40;99.90
25550;DHT22;13444;50.562;7.262;2022-12-07T07:05:52;5.30;99.90
25550;DHT22;13444;50.562;7.262;2022-12-07T07:08:17;5.30;99.90
25550;DHT22;13444;50.562;7.262;2022-12-07T07:10:43;5.30;99.90
25550;DHT22;13444;50.562;7.262;2022-12-07T07:13:08;5.30;99.90
25550;DHT22;13444;50.562;7.262;2022-12-07T07:15:34;5.40;99.90
25550;DHT22;13444;50.562;7.262;2022-12-07T07:18:02;5.40;99.90
25550;DHT22;13444;50.562;7.262;2022-12-07T07:20:28;5.30;99.90
25550;DHT22;13444;50.562;7.262;2022-12-07T07:22:54;5.30;99.90
25550;DHT22;13444;50.562;7.262;2022-12-07T07:25:20;5.30;99.90
25550;DHT22;13444;50.562;7.262;2022-12-07T07:27:46;5.30;99.90
25550;DHT22;13444;50.562;7.262;2022-12-07T07:30:12;5.30;99.90
25550;DHT22;13444;50.562;7.262;2022-12-07T07:32:37;5.30;99.90
25550;DHT22;13444;50.562;7.262;2022-12-07T07:35:03;5.30;99.90
25550;DHT22;13444;50.562;7.262;2022-12-07T07:37:29;5.30;99.90
25550;DHT22;13444;50.562;7.262;2022-12-07T07:39:54;5.30;99.90
25550;DHT22;13444;50.562;7.262;2022-12-07T07:42:20;5.30;99.90
25550;DHT22;13444;50.562;7.262;2022-12-07T07:44:45;5.30;99.90
25550;DHT22;13444;50.562;7.262;2022-12-07T07:47:11;5.30;99.90
25550;DHT22;13444;50.562;7.262;2022-12-07T07:49:37;5.30;99.90
25550;DHT22;13444;50.562;7.262;2022-12-07T07:52:02;5.30;99.90
25550;DHT22;13444;50.562;7.262;2022-12-07T07:54:29;5.30;99.90
25550;DHT22;13444;50.562;7.262;2022-12-07T07:56:54;5.30;99.90
25550;DHT22;13444;50.562;7.262;2022-12-07T07:59:20;5.40;99.90
25550;DHT22;13444;50.562;7.262;2022-12-07T08:01:45;5.40;99.90
25550;DHT22;13444;50.562;7.262;2022-12-07T08:04:11;5.40;99.90
25550;DHT22;13444;50.562;7.262;2022-12-07T08:06:36;5.40;99.90
25550;DHT22;13444;50.562;7.262;2022-12-07T08:09:02;5.40;99.90
25550;DHT22;13444;50.562;7.262;2022-12-07T08:11:28;5.40;99.90
25550;DHT22;13444;50.562;7.262;2022-12-07T08:13:53;5.40;99.90
25550;DHT22;13444;50.562;7.262;2022-12-07T08:16:19;5.50;99.90
25550;DHT22;13444;50.562;7.262;2022-12-07T08:18:45;5.50;99.90
25550;DHT22;13444;50.562;7.262;2022-12-07T08:21:15;5.50;99.90
25550;DHT22;13444;50.562;7.262;2022-12-07T08:23:41;5.50;99.90
25550;DHT22;13444;50.562;7.262;2022-12-07T08:26:12;5.50;99.90
25550;DHT22;13444;50.562;7.262;2022-12-07T08:28:38;5.50;99.90
25550;DHT22;13444;50.562;7.262;2022-12-07T08:31:22;5.50;99.90
25550;DHT22;13444;50.562;7.262;2022-12-07T08:33:48;5.50;99.90
25550;DHT22;13444;50.562;7.262;2022-12-07T08:36:14;5.50;99.90
25550;DHT22;13444;50.562;7.262;2022-12-07T08:38:41;5.50;99.90
25550;DHT22;13444;50.562;7.262;2022-12-07T08:41:07;5.50;99.90
25550;DHT22;13444;50.562;7.262;2022-12-07T08:43:34;5.50;99.90
25550;DHT22;13444;50.562;7.262;2022-12-07T08:46:07;5.40;99.90
25550;DHT22;13444;50.562;7.262;2022-12-07T08:48:36;5.40;99.90
25550;DHT22;13444;50.562;7.262;2022-12-07T08:51:02;5.50;99.90
25550;DHT22;13444;50.562;7.262;2022-12-07T08:53:29;5.80;99.90
25550;DHT22;13444;50.562;7.262;2022-12-07T08:55:55;6.10;99.90
25550;DHT22;13444;50.562;7.262;2022-12-07T08:58:21;6.10;99.90
25550;DHT22;13444;50.562;7.262;2022-12-07T09:00:47;6.10;99.90
25550;DHT22;13444;50.562;7.262;2022-12-07T09:03:12;6.00;99.90
25550;DHT22;13444;50.562;7.262;2022-12-07T09:05:38;6.00;99.90
25550;DHT22;13444;50.562;7.262;2022-12-07T09:08:03;5.90;99.90
25550;DHT22;13444;50.562;7.262;2022-12-07T09:10:29;5.90;99.90
25550;DHT22;13444;50.562;7.262;2022-12-07T09:12:55;5.80;99.90
25550;DHT22;13444;50.562;7.262;2022-12-07T09:15:20;5.80;99.90
25550;DHT22;13444;50.562;7.262;2022-12-07T09:17:46;5.80;99.90
25550;DHT22;13444;50.562;7.262;2022-12-07T09:20:12;5.80;99.90
25550;DHT22;13444;50.562;7.262;2022-12-07T09:22:37;5.80;99.90
25550;DHT22;13444;50.562;7.262;2022-12-07T09:25:04;5.80;99.90
25550;DHT22;13444;50.562;7.262;2022-12-07T09:27:30;5.90;99.90
25550;DHT22;13444;50.562;7.262;2022-12-07T09:29:55;5.90;99.90
25550;DHT22;13444;50.562;7.262;2022-12-07T09:32:21;5.90;99.90
25550;DHT22;13444;50.562;7.262;2022-12-07T09:34:47;5.90;99.90
25550;DHT22;13444;50.562;7.262;2022-12-07T09:37:13;5.90;99.90
25550;DHT22;13444;50.562;7.262;2022-12-07T09:39:39;6.00;99.90
25550;DHT22;13444;50.562;7.262;2022-12-07T09:42:06;6.00;99.90
25550;DHT22;13444;50.562;7.262;2022-12-07T09:44:33;6.00;99.90
25550;DHT22;13444;50.562;7.262;2022-12-07T09:47:00;6.10;99.90
25550;DHT22;13444;50.562;7.262;2022-12-07T09:49:28;6.20;99.90
25550;DHT22;13444;50.562;7.262;2022-12-07T09:52:02;6.20;99.90
25550;DHT22;13444;50.562;7.262;2022-12-07T09:54:29;6.30;99.90
25550;DHT22;13444;50.562;7.262;2022-12-07T09:56:56;6.30;99.90
25550;DHT22;13444;50.562;7.262;2022-12-07T09:59:21;6.40;99.90
25550;DHT22;13444;50.562;7.262;2022-12-07T10:01:49;6.40;99.90
25550;DHT22;13444;50.562;7.262;2022-12-07T10:04:24;6.40;99.90
25550;DHT22;13444;50.562;7.262;2022-12-07T10:06:50;6.40;99.90
25550;DHT22;13444;50.562;7.262;2022-12-07T10:09:18;6.40;99.90
25550;DHT22;13444;50.562;7.262;2022-12-07T10:14:27;6.50;99.90
25550;DHT22;13444;50.562;7.262;2022-12-07T10:16:53;6.50;99.90
25550;DHT22;13444;50.562;7.262;2022-12-07T10:19:21;6.50;99.90
25550;DHT22;13444;50.562;7.262;2022-12-07T10:22:11;6.60;99.90
25550;DHT22;13444;50.562;7.262;2022-12-07T10:24:38;6.70;99.90
25550;DHT22;13444;50.562;7.262;2022-12-07T10:27:29;6.70;99.90
25550;DHT22;13444;50.562;7.262;2022-12-07T10:29:57;6.80;99.90
25550;DHT22;13444;50.562;7.262;2022-12-07T10:32:33;6.90;99.90
25550;DHT22;13444;50.562;7.262;2022-12-07T10:35:26;7.00;99.90
25550;DHT22;13444;50.562;7.262;2022-12-07T10:37:54;7.30;99.90
25550;DHT22;13444;50.562;7.262;2022-12-07T10:43:17;7.70;99.90
25550;DHT22;13444;50.562;7.262;2022-12-07T10:46:02;7.80;99.90
25550;DHT22;13444;50.562;7.262;2022-12-07T10:48:59;7.80;99.90
25550;DHT22;13444;50.562;7.262;2022-12-07T10:51:43;7.80;99.90
25550;DHT22;13444;50.562;7.262;2022-12-07T10:54:24;7.70;99.90
25550;DHT22;13444;50.562;7.262;2022-12-07T10:57:04;7.60;99.90
25550;DHT22;13444;50.562;7.262;2022-12-07T11:00:15;7.60;99.90
25550;DHT22;13444;50.562;7.262;2022-12-07T11:02:54;7.50;99.90
25550;DHT22;13444;50.562;7.262;2022-12-07T11:08:44;7.50;99.90
25550;DHT22;13444;50.562;7.262;2022-12-07T11:11:22;7.80;99.90
25550;DHT22;13444;50.562;7.262;2022-12-07T11:16:51;8.70;99.90
25550;DHT22;13444;50.562;7.262;2022-12-07T11:22:40;9.10;99.90
25550;DHT22;13444;50.562;7.262;2022-12-07T11:25:17;9.20;99.90
25550;DHT22;13444;50.562;7.262;2022-12-07T11:27:58;9.40;99.90
25550;DHT22;13444;50.562;7.262;2022-12-07T11:30:42;9.60;99.90
25550;DHT22;13444;50.562;7.262;2022-12-07T11:33:22;9.90;99.90
25550;DHT22;13444;50.562;7.262;2022-12-07T11:36:10;10.00;99.90
25550;DHT22;13444;50.562;7.262;2022-12-07T11:38:52;10.10;99.90
25550;DHT22;13444;50.562;7.262;2022-12-07T11:41:29;10.10;99.90
25550;DHT22;13444;50.562;7.262;2022-12-07T11:46:48;9.70;99.90
25550;DHT22;13444;50.562;7.262;2022-12-07T11:49:21;9.50;99.90
25550;DHT22;13444;50.562;7.262;2022-12-07T11:51:51;9.20;99.90
25550;DHT22;13444;50.562;7.262;2022-12-07T11:54:23;8.90;99.90
25550;DHT22;13444;50.562;7.262;2022-12-07T11:56:51;8.70;99.90
25550;DHT22;13444;50.562;7.262;2022-12-07T11:59:31;8.50;99.90
25550;DHT22;13444;50.562;7.262;2022-12-07T12:02:16;8.50;99.90
25550;DHT22;13444;50.562;7.262;2022-12-07T12:07:29;8.80;99.90
25550;DHT22;13444;50.562;7.262;2022-12-07T12:10:06;8.80;99.90
25550;DHT22;13444;50.562;7.262;2022-12-07T12:13:05;8.70;99.90
25550;DHT22;13444;50.562;7.262;2022-12-07T12:19:03;8.30;99.90
25550;DHT22;13444;50.562;7.262;2022-12-07T12:21:30;8.10;99.90
25550;DHT22;13444;50.562;7.262;2022-12-07T12:24:00;8.00;99.90
25550;DHT22;13444;50.562;7.262;2022-12-07T12:26:32;7.80;99.90
25550;DHT22;13444;50.562;7.262;2022-12-07T12:29:01;7.80;99.90
25550;DHT22;13444;50.562;7.262;2022-12-07T12:33:56;7.70;99.90
25550;DHT22;13444;50.562;7.262;2022-12-07T12:46:56;8.00;99.90
25550;DHT22;13444;50.562;7.262;2022-12-07T12:51:56;8.10;99.90
25550;DHT22;13444;50.562;7.262;2022-12-07T12:54:24;8.20;99.90
25550;DHT22;13444;50.562;7.262;2022-12-07T12:57:21;8.20;99.90
25550;DHT22;13444;50.562;7.262;2022-12-07T13:02:27;8.10;99.90
25550;DHT22;13444;50.562;7.262;2022-12-07T13:04:59;8.00;99.90
25550;DHT22;13444;50.562;7.262;2022-12-07T13:15:39;7.80;99.90
25550;DHT22;13444;50.562;7.262;2022-12-07T13:23:31;7.80;99.90
25550;DHT22;13444;50.562;7.262;2022-12-07T13:29:05;7.80;99.90
25550;DHT22;13444;50.562;7.262;2022-12-07T13:31:44;7.80;99.90
25550;DHT22;13444;50.562;7.262;2022-12-07T13:37:01;7.60;99.90
25550;DHT22;13444;50.562;7.262;2022-12-07T13:39:27;7.60;99.90
25550;DHT22;13444;50.562;7.262;2022-12-07T13:41:58;7.60;99.90
25550;DHT22;13444;50.562;7.262;2022-12-07T13:44:26;7.60;99.90
25550;DHT22;13444;50.562;7.262;2022-12-07T13:47:06;7.50;99.90
25550;DHT22;13444;50.562;7.262;2022-12-07T13:49:46;7.50;99.90
25550;DHT22;13444;50.562;7.262;2022-12-07T13:52:15;7.40;99.90
25550;DHT22;13444;50.562;7.262;2022-12-07T13:57:16;7.30;99.90
25550;DHT22;13444;50.562;7.262;2022-12-07T13:59:42;6.90;99.90
25550;DHT22;13444;50.562;7.262;2022-12-07T14:02:31;6.80;99.90
25550;DHT22;13444;50.562;7.262;2022-12-07T14:07:56;6.70;99.90
25550;DHT22;13444;50.562;7.262;2022-12-07T14:10:30;6.80;99.90
25550;DHT22;13444;50.562;7.262;2022-12-07T14:12:57;6.70;99.90
25550;DHT22;13444;50.562;7.262;2022-12-07T14:15:29;6.70;99.90
25550;DHT22;13444;50.562;7.262;2022-12-07T14:17:56;6.70;99.90
25550;DHT22;13444;50.562;7.262;2022-12-07T14:20:30;6.70;99.90
25550;DHT22;13444;50.562;7.262;2022-12-07T14:22:56;6.60;99.90
25550;DHT22;13444;50.562;7.262;2022-12-07T14:25:26;6.60;99.90
25550;DHT22;13444;50.562;7.262;2022-12-07T14:27:57;6.70;99.90
25550;DHT22;13444;50.562;7.262;2022-12-07T14:30:28;6.60;99.90
25550;DHT22;13444;50.562;7.262;2022-12-07T14:32:58;6.60;99.90
25550;DHT22;13444;50.562;7.262;2022-12-07T14:35:25;6.60;99.90
25550;DHT22;13444;50.562;7.262;2022-12-07T14:37:51;6.60;99.90
25550;DHT22;13444;50.562;7.262;2022-12-07T14:40:27;6.60;99.90
25550;DHT22;13444;50.562;7.262;2022-12-07T14:42:56;6.60;99.90
25550;DHT22;13444;50.562;7.262;2022-12-07T14:45:23;6.60;99.90
25550;DHT22;13444;50.562;7.262;2022-12-07T14:47:48;6.60;99.90
25550;DHT22;13444;50.562;7.262;2022-12-07T14:50:17;6.50;99.90
25550;DHT22;13444;50.562;7.262;2022-12-07T14:52:49;6.50;99.90
25550;DHT22;13444;50.562;7.262;2022-12-07T14:55:34;6.50;99.90
25550;DHT22;13444;50.562;7.262;2022-12-07T14:58:00;6.50;99.90
25550;DHT22;13444;50.562;7.262;2022-12-07T15:00:27;6.50;99.90
25550;DHT22;13444;50.562;7.262;2022-12-07T15:02:54;6.50;99.90
25550;DHT22;13444;50.562;7.262;2022-12-07T15:05:21;6.50;99.90
25550;DHT22;13444;50.562;7.262;2022-12-07T15:07:48;6.50;99.90
25550;DHT22;13444;50.562;7.262;2022-12-07T15:10:19;6.50;99.90
25550;DHT22;13444;50.562;7.262;2022-12-07T15:12:45;6.40;99.90
25550;DHT22;13444;50.562;7.262;2022-12-07T15:15:11;6.40;99.90
25550;DHT22;13444;50.562;7.262;2022-12-07T15:17:37;6.40;99.90
25550;DHT22;13444;50.562;7.262;2022-12-07T15:20:03;6.40;99.90
25550;DHT22;13444;50.562;7.262;2022-12-07T15:22:28;6.40;99.90
25550;DHT22;13444;50.562;7.262;2022-12-07T15:24:56;6.30;99.90
25550;DHT22;13444;50.562;7.262;2022-12-07T15:27:22;6.30;99.90
25550;DHT22;13444;50.562;7.262;2022-12-07T15:29:48;6.30;99.90
25550;DHT22;13444;50.562;7.262;2022-12-07T15:32:13;6.30;99.90
25550;DHT22;13444;50.562;7.262;2022-12-07T15:34:39;6.30;99.90
25550;DHT22;13444;50.562;7.262;2022-12-07T15:37:04;6.30;99.90
25550;DHT22;13444;50.562;7.262;2022-12-07T15:39:30;6.30;99.90
25550;DHT22;13444;50.562;7.262;2022-12-07T15:41:56;6.20;99.90
25550;DHT22;13444;50.562;7.262;2022-12-07T15:44:21;6.20;99.90
25550;DHT22;13444;50.562;7.262;2022-12-07T15:47:05;6.20;99.90
25550;DHT22;13444;50.562;7.262;2022-12-07T15:49:31;6.20;99.90
25550;DHT22;13444;50.562;7.262;2022-12-07T15:51:57;6.20;99.90
25550;DHT22;13444;50.562;7.262;2022-12-07T15:54:24;6.10;99.90
25550;DHT22;13444;50.562;7.262;2022-12-07T15:56:54;6.10;99.90
25550;DHT22;13444;50.562;7.262;2022-12-07T15:59:20;6.10;99.90
25550;DHT22;13444;50.562;7.262;2022-12-07T16:01:45;6.10;99.90
25550;DHT22;13444;50.562;7.262;2022-12-07T16:04:11;6.00;99.90
25550;DHT22;13444;50.562;7.262;2022-12-07T16:06:37;6.10;99.90
25550;DHT22;13444;50.562;7.262;2022-12-07T16:09:04;6.00;99.90
25550;DHT22;13444;50.562;7.262;2022-12-07T16:11:30;6.00;99.90
25550;DHT22;13444;50.562;7.262;2022-12-07T16:13:55;5.90;99.90
25550;DHT22;13444;50.562;7.262;2022-12-07T16:16:21;5.90;99.90
25550;DHT22;13444;50.562;7.262;2022-12-07T16:18:48;5.90;99.90
25550;DHT22;13444;50.562;7.262;2022-12-07T16:21:16;5.90;99.90
25550;DHT22;13444;50.562;7.262;2022-12-07T16:23:42;5.90;99.90
25550;DHT22;13444;50.562;7.262;2022-12-07T16:26:19;5.80;99.90
25550;DHT22;13444;50.562;7.262;2022-12-07T16:28:47;5.80;99.90
25550;DHT22;13444;50.562;7.262;2022-12-07T16:31:17;5.80;99.90
25550;DHT22;13444;50.562;7.262;2022-12-07T16:33:44;5.80;99.90
25550;DHT22;13444;50.562;7.262;2022-12-07T16:36:11;5.80;99.90
25550;DHT22;13444;50.562;7.262;2022-12-07T16:38:37;5.70;99.90
25550;DHT22;13444;50.562;7.262;2022-12-07T16:41:07;5.70;99.90
25550;DHT22;13444;50.562;7.262;2022-12-07T16:43:34;5.70;99.90
25550;DHT22;13444;50.562;7.262;2022-12-07T16:46:01;5.70;99.90
25550;DHT22;13444;50.562;7.262;2022-12-07T16:48:27;5.60;99.90
25550;DHT22;13444;50.562;7.262;2022-12-07T16:50:53;5.60;99.90
25550;DHT22;13444;50.562;7.262;2022-12-07T16:53:23;5.60;99.90
25550;DHT22;13444;50.562;7.262;2022-12-07T16:55:50;5.60;99.90
25550;DHT22;13444;50.562;7.262;2022-12-07T16:58:16;5.60;99.90
25550;DHT22;13444;50.562;7.262;2022-12-07T17:00:43;5.60;99.90
25550;DHT22;13444;50.562;7.262;2022-12-07T17:03:09;5.60;99.90
25550;DHT22;13444;50.562;7.262;2022-12-07T17:05:40;5.60;99.90
25550;DHT22;13444;50.562;7.262;2022-12-07T17:08:06;5.60;99.90
25550;DHT22;13444;50.562;7.262;2022-12-07T17:10:34;5.60;99.90
25550;DHT22;13444;50.562;7.262;2022-12-07T17:13:01;5.60;99.90
25550;DHT22;13444;50.562;7.262;2022-12-07T17:15:27;5.60;99.90
25550;DHT22;13444;50.562;7.262;2022-12-07T17:17:56;5.60;99.90
25550;DHT22;13444;50.562;7.262;2022-12-07T17:20:25;5.60;99.90
25550;DHT22;13444;50.562;7.262;2022-12-07T17:22:51;5.60;99.90
25550;DHT22;13444;50.562;7.262;2022-12-07T17:25:17;5.60;99.90
25550;DHT22;13444;50.562;7.262;2022-12-07T17:27:43;5.60;99.90